Time;durP1;ratioP1;P1;durP2;ratioP2;P2;SDS_P1;SDS_P2;PMS_P1;PMS_P2;Temp;Humidity;BMP_temperature;BMP_pressure;BME280_temperature;BME280_humidity;BME280_pressure;Samples;Min_cycle;Max_cycle;Signal;HPM_P1;HPM_P2
2023/09/12 00:01:54;;;;;;;;;;;;;;;24.00;52.59;95448.00;10517257;28;1597;-62
2023/09/12 00:06:55;;;;;;;;;;;;;;;23.96;52.34;95451.53;10520715;28;1456;-62
2023/09/12 00:11:58;;;;;;;;;;;;;;;23.91;52.34;95433.13;10527340;28;2369;-62
2023/09/12 00:16:58;;;;;;;;;;;;;;;23.95;52.15;95436.72;10533922;28;1968;-61
2023/09/12 00:21:59;;;;;;;;;;;;;;;23.89;52.06;95433.44;10528181;28;1606;-62
2023/09/12 00:26:59;;;;;;;;;;;;;;;23.81;52.00;95425.44;10529599;28;1555;-62
2023/09/12 00:31:59;;;;;;;;;;;;;;;23.83;51.88;95428.56;10530654;28;1487;-62
2023/09/12 00:37:00;;;;;;;;;;;;;;;23.83;51.66;95418.75;10531491;28;1938;-62
2023/09/12 00:42:00;;;;;;;;;;;;;;;23.77;51.86;95422.59;10526557;28;5383;-62
2023/09/12 00:47:03;;;;;;;;;;;;;;;23.78;51.58;95416.22;10525829;28;1486;-62
2023/09/12 00:52:06;;;;;;;;;;;;;;;23.76;51.71;95413.09;10521606;28;1744;-62
2023/09/12 00:57:07;;;;;;;;;;;;;;;23.83;51.63;95413.47;10518628;28;1909;-62
2023/09/12 01:02:07;;;;;;;;;;;;;;;23.86;51.44;95407.56;10526412;28;1684;-61
2023/09/12 01:07:07;;;;;;;;;;;;;;;23.83;51.87;95404.72;10526288;28;1819;-62
2023/09/12 01:12:08;;;;;;;;;;;;;;;23.86;51.76;95401.50;10502800;28;2495;-62
2023/09/12 01:17:08;;;;;;;;;;;;;;;23.85;51.52;95403.34;10537033;28;1914;-61
2023/09/12 01:22:11;;;;;;;;;;;;;;;23.82;51.69;95411.13;10541674;28;1582;-62
2023/09/12 01:27:14;;;;;;;;;;;;;;;23.80;51.61;95403.47;10524380;28;1617;-62
2023/09/12 01:32:14;;;;;;;;;;;;;;;23.77;51.38;95405.94;10533586;28;1677;-62
2023/09/12 01:37:15;;;;;;;;;;;;;;;23.78;51.36;95400.34;10524323;28;1905;-62
2023/09/12 01:42:15;;;;;;;;;;;;;;;23.75;51.46;95400.97;10533404;28;1567;-62
2023/09/12 01:47:16;;;;;;;;;;;;;;;23.75;51.65;95400.97;10547125;28;1754;-62
2023/09/12 01:52:16;;;;;;;;;;;;;;;23.75;51.83;95411.53;10518719;28;1769;-61
2023/09/12 01:57:17;;;;;;;;;;;;;;;23.75;51.75;95410.75;10506008;28;1985;-62
2023/09/12 02:02:17;;;;;;;;;;;;;;;23.63;51.90;95419.25;10503009;28;1568;-61
2023/09/12 02:07:17;;;;;;;;;;;;;;;23.58;51.86;95416.72;10505566;28;2391;-62
2023/09/12 02:12:17;;;;;;;;;;;;;;;23.54;51.94;95423.69;10507267;28;1601;-62
2023/09/12 02:17:21;;;;;;;;;;;;;;;23.58;51.85;95429.16;10543161;28;1894;-62
2023/09/12 02:22:21;;;;;;;;;;;;;;;23.56;51.88;95428.66;10521149;28;1608;-62
2023/09/12 02:27:21;;;;;;;;;;;;;;;23.58;52.10;95415.91;10483968;28;1640;-61
2023/09/12 02:32:22;;;;;;;;;;;;;;;23.55;52.08;95427.91;10522954;28;1685;-61
2023/09/12 02:37:22;;;;;;;;;;;;;;;23.57;52.15;95430.25;10535710;28;1894;-61
2023/09/12 02:42:24;;;;;;;;;;;;;;;23.55;52.43;95427.13;10537147;28;1600;-61
2023/09/12 02:47:24;;;;;;;;;;;;;;;23.53;52.44;95435.34;10529220;28;1633;-61
2023/09/12 02:52:24;;;;;;;;;;;;;;;23.45;52.76;95428.13;10532561;28;1611;-61
2023/09/12 02:57:24;;;;;;;;;;;;;;;23.45;52.49;95428.91;10530512;28;1902;-62
2023/09/12 03:02:25;;;;;;;;;;;;;;;23.43;52.57;95422.38;10519764;28;2303;-61
2023/09/12 03:07:25;;;;;;;;;;;;;;;23.41;52.55;95427.94;10518359;28;1459;-61
2023/09/12 03:12:25;;;;;;;;;;;;;;;23.39;52.65;95430.09;10513437;28;1594;-61
2023/09/12 03:17:27;;;;;;;;;;;;;;;23.31;52.42;95427.34;10523037;28;1910;-64
2023/09/12 03:22:27;;;;;;;;;;;;;;;23.32;52.27;95416.53;10497663;28;1566;-62
2023/09/12 03:27:28;;;;;;;;;;;;;;;23.33;52.40;95419.91;10525965;28;1584;-61
2023/09/12 03:32:28;;;;;;;;;;;;;;;23.30;52.40;95425.78;10529707;28;1549;-61
2023/09/12 03:37:29;;;;;;;;;;;;;;;23.29;52.33;95417.06;10525847;28;1890;-61
2023/09/12 03:42:29;;;;;;;;;;;;;;;23.27;52.56;95419.22;10500546;28;5253;-61
2023/09/12 03:47:35;;;;;;;;;;;;;;;23.25;52.54;95423.25;10502057;28;1339;-61
2023/09/12 03:52:36;;;;;;;;;;;;;;;23.22;52.53;95427.28;10523128;28;1528;-61
2023/09/12 03:57:45;;;;;;;;;;;;;;;23.23;52.41;95428.06;10514397;28;2429;-61
2023/09/12 04:02:46;;;;;;;;;;;;;;;23.21;52.64;95427.56;10516425;28;1476;-61
2023/09/12 04:07:46;;;;;;;;;;;;;;;23.20;52.76;95426.81;10515505;28;1562;-61
2023/09/12 04:12:47;;;;;;;;;;;;;;;23.18;52.80;95428.19;10526296;28;1512;-61
2023/09/12 04:17:48;;;;;;;;;;;;;;;23.15;52.72;95424.25;10529722;28;1910;-61
2023/09/12 04:22:48;;;;;;;;;;;;;;;23.13;52.71;95436.22;10510032;28;1482;-61
2023/09/12 04:27:49;;;;;;;;;;;;;;;23.09;52.55;95437.88;10524022;28;1435;-61
2023/09/12 04:32:49;;;;;;;;;;;;;;;23.01;52.61;95430.66;10521876;28;1415;-61
2023/09/12 04:37:49;;;;;;;;;;;;;;;22.98;52.45;95428.63;10531503;28;1979;-61
2023/09/12 04:42:49;;;;;;;;;;;;;;;23.00;52.49;95431.75;10528611;28;5149;-61
2023/09/12 04:47:50;;;;;;;;;;;;;;;22.97;52.74;95432.31;10516262;28;1511;-62
2023/09/12 04:52:50;;;;;;;;;;;;;;;22.98;52.76;95428.63;10550128;27;2282;-63
2023/09/12 04:57:51;;;;;;;;;;;;;;;23.00;52.82;95426.47;10555210;28;1976;-63
2023/09/12 05:02:51;;;;;;;;;;;;;;;22.98;52.55;95429.38;10534668;28;1601;-63
2023/09/12 05:07:51;;;;;;;;;;;;;;;22.92;52.89;95429.78;10539900;28;1459;-62
2023/09/12 05:12:51;;;;;;;;;;;;;;;22.88;52.62;95434.88;10533857;28;1456;-62
2023/09/12 05:17:54;;;;;;;;;;;;;;;22.90;52.71;95438.00;10528281;28;2040;-62
2023/09/12 05:22:56;;;;;;;;;;;;;;;22.90;52.69;95440.66;10532630;28;1590;-62
2023/09/12 05:27:56;;;;;;;;;;;;;;;22.93;52.48;95448.00;10513487;28;1412;-62
2023/09/12 05:32:57;;;;;;;;;;;;;;;22.94;52.80;95438.19;10532263;28;1564;-62
2023/09/12 05:37:57;;;;;;;;;;;;;;;22.96;52.85;95436.03;10535063;28;1914;-62
2023/09/12 05:42:57;;;;;;;;;;;;;;;22.93;52.86;95448.00;10505350;28;5153;-62
2023/09/12 05:47:57;;;;;;;;;;;;;;;22.95;52.86;95447.69;10534733;28;1531;-62
2023/09/12 05:52:58;;;;;;;;;;;;;;;22.98;52.91;95450.53;10528096;28;2442;-62
2023/09/12 05:57:58;;;;;;;;;;;;;;;22.96;52.68;95457.19;10530905;28;1895;-62
2023/09/12 06:02:58;;;;;;;;;;;;;;;23.02;52.74;95463.94;10542959;28;1471;-62
2023/09/12 06:07:59;;;;;;;;;;;;;;;22.93;52.74;95458.56;10514465;28;1455;-62
2023/09/12 06:12:59;;;;;;;;;;;;;;;22.94;52.83;95465.41;10502777;28;1669;-63
2023/09/12 06:18:00;;;;;;;;;;;;;;;22.94;52.92;95465.41;10523471;28;1906;-63
2023/09/12 06:23:00;;;;;;;;;;;;;;;22.96;53.15;95467.75;10515966;28;1521;-63
2023/09/12 06:28:00;;;;;;;;;;;;;;;22.99;53.01;95467.16;10530918;28;1348;-63
2023/09/12 06:33:04;;;;;;;;;;;;;;;22.98;52.84;95461.09;10511157;28;1508;-63
2023/09/12 06:38:04;;;;;;;;;;;;;;;22.99;52.76;95464.53;10506016;28;2008;-63
2023/09/12 06:43:05;;;;;;;;;;;;;;;22.99;52.59;95473.25;10530005;28;5248;-63
2023/09/12 06:48:06;;;;;;;;;;;;;;;23.06;52.79;95467.56;10525151;28;2415;-63
2023/09/12 06:53:07;;;;;;;;;;;;;;;23.09;52.68;95470.41;10549951;28;1456;-63
2023/09/12 06:58:11;;;;;;;;;;;;;;;23.11;52.48;95475.38;10517426;28;1909;-63
2023/09/12 07:03:11;;;;;;;;;;;;;;;23.13;52.33;95479.31;10530260;28;1440;-63
2023/09/12 07:08:12;;;;;;;;;;;;;;;23.17;52.53;95474.19;10543433;28;1466;-63
2023/09/12 07:13:15;;;;;;;;;;;;;;;23.17;52.10;95479.47;10517064;28;1547;-63
2023/09/12 07:18:16;;;;;;;;;;;;;;;23.23;52.37;95487.03;10531758;28;1952;-64
2023/09/12 07:23:16;;;;;;;;;;;;;;;23.28;52.27;95486.13;10531671;28;1380;-61
2023/09/12 07:28:18;;;;;;;;;;;;;;;23.32;52.25;95487.13;10533228;28;1824;-61
2023/09/12 07:33:18;;;;;;;;;;;;;;;23.37;52.15;95494.94;10530784;28;1362;-61
2023/09/12 07:38:19;;;;;;;;;;;;;;;23.43;52.02;95491.91;10499138;28;1968;-63
2023/09/12 07:43:20;;;;;;;;;;;;;;;23.48;51.85;95490.22;10526587;28;2415;-63
2023/09/12 07:48:24;;;;;;;;;;;;;;;23.51;51.72;95485.16;10515014;28;1512;-63
2023/09/12 07:53:24;;;;;;;;;;;;;;;23.58;51.85;95492.66;10517497;28;1474;-63
2023/09/12 07:58:24;;;;;;;;;;;;;;;23.63;51.88;95495.19;10520145;28;1901;-63
2023/09/12 08:03:24;;;;;;;;;;;;;;;23.67;51.95;95494.31;10518222;28;1538;-63
2023/09/12 08:08:25;;;;;;;;;;;;;;;23.73;51.52;95498.41;10496488;28;1645;-63
2023/09/12 08:13:28;;;;;;;;;;;;;;;23.76;51.28;95497.78;10533516;28;1506;-63
2023/09/12 08:18:29;;;;;;;;;;;;;;;23.84;51.41;95498.94;10490053;28;1973;-63
2023/09/12 08:23:29;;;;;;;;;;;;;;;23.92;51.14;95495.59;10506144;28;1527;-64
2023/09/12 08:28:29;;;;;;;;;;;;;;;23.97;51.39;95496.25;10535826;28;1501;-64
2023/09/12 08:33:30;;;;;;;;;;;;;;;24.03;51.52;95500.34;10525748;28;1510;-64
2023/09/12 08:38:30;;;;;;;;;;;;;;;24.12;50.97;95495.91;10526060;28;2494;-64
2023/09/12 08:43:30;;;;;;;;;;;;;;;24.18;50.85;95497.34;10523004;28;5251;-64
2023/09/12 08:48:31;;;;;;;;;;;;;;;24.20;51.37;95497.84;10492524;28;1739;-65
2023/09/12 08:53:31;;;;;;;;;;;;;;;24.33;50.18;95492.75;10507799;28;1497;-63
2023/09/12 08:58:32;;;;;;;;;;;;;;;24.38;50.67;95492.66;10521157;28;1914;-63
2023/09/12 09:03:32;;;;;;;;;;;;;;;24.41;50.29;95484.06;10521641;28;1373;-63
2023/09/12 09:08:32;;;;;;;;;;;;;;;24.39;50.68;95487.03;10522574;28;1777;-63
2023/09/12 09:13:32;;;;;;;;;;;;;;;24.47;50.22;95485.50;10537174;28;1475;-63
2023/09/12 09:18:48;;;;;;;;;;;;;;;24.45;50.72;95472.56;10527213;28;1906;-66
2023/09/12 09:23:49;;;;;;;;;;;;;;;24.51;50.30;95470.56;10537567;28;1474;-66
2023/09/12 09:29:05;;;;;;;;;;;;;;;24.57;49.07;95472.78;10520282;28;1515;-66
2023/09/12 09:34:09;;;;;;;;;;;;;;;24.60;49.40;95474.03;10539897;28;2385;-66
2023/09/12 09:39:10;;;;;;;;;;;;;;;24.61;49.55;95465.78;10514723;28;1982;-66
2023/09/12 09:44:10;;;;;;;;;;;;;;;24.68;49.23;95462.69;10530987;28;5065;-66
2023/09/12 09:49:11;;;;;;;;;;;;;;;24.69;48.74;95456.31;10531824;28;1894;-66
2023/09/12 09:54:11;;;;;;;;;;;;;;;24.67;49.59;95463.78;10534079;28;1455;-65
2023/09/12 09:59:16;;;;;;;;;;;;;;;24.72;49.25;95455.69;10537141;28;2028;-66
2023/09/12 10:04:16;;;;;;;;;;;;;;;24.74;49.59;95453.53;10510916;28;1503;-66
2023/09/12 10:09:16;;;;;;;;;;;;;;;24.78;48.89;95449.97;10513133;28;1832;-66
2023/09/12 10:14:18;;;;;;;;;;;;;;;24.77;49.35;95458.25;10523945;28;1467;-65
2023/09/12 10:19:20;;;;;;;;;;;;;;;24.76;49.40;95452.16;10521855;28;1972;-63
2023/09/12 10:24:21;;;;;;;;;;;;;;;24.84;48.70;95454.06;10503156;28;1401;-64
2023/09/12 10:29:22;;;;;;;;;;;;;;;24.98;47.79;95448.63;10523740;28;1428;-65
2023/09/12 10:34:22;;;;;;;;;;;;;;;24.90;48.62;95436.13;10540852;28;2278;-66
2023/09/12 10:39:22;;;;;;;;;;;;;;;24.87;48.64;95439.41;10527805;28;1922;-66
2023/09/12 10:44:23;;;;;;;;;;;;;;;24.87;48.94;95436.75;10529647;28;5149;-65
2023/09/12 10:49:23;;;;;;;;;;;;;;;24.87;48.75;95432.22;10528678;28;1327;-66
2023/09/12 10:54:24;;;;;;;;;;;;;;;24.98;47.56;95422.88;10497617;28;1543;-64
2023/09/12 10:59:27;;;;;;;;;;;;;;;24.98;47.31;95432.72;10507509;28;1910;-65
2023/09/12 11:04:28;;;;;;;;;;;;;;;24.96;47.86;95433.03;10502843;28;1502;-66
2023/09/12 11:09:30;;;;;;;;;;;;;;;25.03;47.08;95424.63;10491567;28;1945;-65
2023/09/12 11:14:32;;;;;;;;;;;;;;;24.97;48.61;95431.16;10509996;28;2184;-63
2023/09/12 11:19:45;;;;;;;;;;;;;;;24.96;48.97;95427.72;10536647;28;1905;-62
2023/09/12 11:24:46;;;;;;;;;;;;;;;24.97;49.78;95428.50;10536160;28;1570;-62
2023/09/12 11:29:47;;;;;;;;;;;;;;;24.95;49.82;95439.44;10508089;28;2298;-62
2023/09/12 11:34:47;;;;;;;;;;;;;;;24.96;49.85;95421.63;10501074;28;1532;-62
2023/09/12 11:39:50;;;;;;;;;;;;;;;24.97;50.49;95421.34;10507636;28;5006;-63
2023/09/12 11:44:50;;;;;;;;;;;;;;;24.97;50.22;95409.94;10533549;27;1604;-64
2023/09/12 11:49:51;;;;;;;;;;;;;;;25.03;50.47;95419.31;10504083;28;1561;-64
2023/09/12 11:54:51;;;;;;;;;;;;;;;25.03;50.74;95411.34;10514555;28;1576;-64
2023/09/12 11:59:52;;;;;;;;;;;;;;;25.06;50.38;95412.63;10510702;28;1898;-63
2023/09/12 12:04:53;;;;;;;;;;;;;;;25.07;50.58;95409.66;10526608;28;1584;-62
2023/09/12 12:09:54;;;;;;;;;;;;;;;25.09;50.79;95401.38;10498741;28;1502;-63
2023/09/12 12:14:54;;;;;;;;;;;;;;;25.11;50.61;95410.59;10539371;27;1565;-63
2023/09/12 12:19:55;;;;;;;;;;;;;;;25.14;50.78;95404.69;10525722;28;1951;-63
2023/09/12 12:24:57;;;;;;;;;;;;;;;25.15;51.10;95400.91;10522514;28;2143;-63
2023/09/12 12:29:58;;;;;;;;;;;;;;;25.18;51.23;95395.00;10536525;28;1559;-64
2023/09/12 12:34:58;;;;;;;;;;;;;;;25.20;51.25;95389.38;10520179;28;1455;-64
2023/09/12 12:40:00;;;;;;;;;;;;;;;25.22;51.10;95388.00;10527124;28;5140;-62
2023/09/12 12:45:01;;;;;;;;;;;;;;;25.23;51.36;95381.56;10495311;28;1583;-63
2023/09/12 12:50:02;;;;;;;;;;;;;;;25.25;51.28;95383.91;10537112;27;2022;-63
2023/09/12 12:55:11;;;;;;;;;;;;;;;25.26;51.20;95378.31;10500595;28;2298;-63
2023/09/12 13:00:13;;;;;;;;;;;;;;;25.27;51.13;95371.91;10535135;27;1965;-63
2023/09/12 13:05:19;;;;;;;;;;;;;;;25.30;51.32;95365.19;10515172;28;2021;-64
2023/09/12 13:10:20;;;;;;;;;;;;;;;25.30;51.16;95360.69;10512117;28;1993;-63
2023/09/12 13:15:20;;;;;;;;;;;;;;;25.29;51.67;95356.44;10529446;28;1929;-63
2023/09/12 13:20:20;;;;;;;;;;;;;;;25.29;51.45;95343.19;10513264;28;2459;-63
2023/09/12 13:25:23;;;;;;;;;;;;;;;25.28;51.26;95340.84;10514249;28;1908;-63
2023/09/12 13:30:23;;;;;;;;;;;;;;;25.28;51.10;95346.16;10497022;28;1908;-63
2023/09/12 13:35:23;;;;;;;;;;;;;;;25.28;51.23;95341.63;10520572;28;1900;-63
2023/09/12 13:40:24;;;;;;;;;;;;;;;25.28;51.18;95341.63;10503469;28;5453;-63
2023/09/12 13:45:24;;;;;;;;;;;;;;;25.28;51.27;95336.34;10505511;28;2224;-63
2023/09/12 13:50:25;;;;;;;;;;;;;;;25.29;51.37;95332.56;10501809;28;1992;-63
2023/09/12 13:55:25;;;;;;;;;;;;;;;25.31;51.17;95326.94;10514067;28;2293;-63
2023/09/12 14:00:25;;;;;;;;;;;;;;;25.31;51.50;95324.28;10495717;28;2149;-63
2023/09/12 14:05:26;;;;;;;;;;;;;;;25.32;51.27;95325.88;10525527;27;1902;-63
2023/09/12 14:10:26;;;;;;;;;;;;;;;25.34;51.41;95323.69;10513646;28;2222;-63
2023/09/12 14:15:26;;;;;;;;;;;;;;;25.32;51.33;95326.66;10512090;28;2416;-63
2023/09/12 14:20:26;;;;;;;;;;;;;;;25.33;51.22;95330.84;10514189;28;1948;-63
2023/09/12 14:25:27;;;;;;;;;;;;;;;25.33;51.19;95328.19;10492860;28;2081;-63
2023/09/12 14:30:34;;;;;;;;;;;;;;;25.35;51.17;95327.91;10491984;28;2495;-63
2023/09/12 14:35:36;;;;;;;;;;;;;;;25.36;51.03;95334.75;10522524;27;2120;-63
2023/09/12 14:40:37;;;;;;;;;;;;;;;25.37;51.10;95328.38;10507973;28;4614;-63
2023/09/12 14:45:38;;;;;;;;;;;;;;;25.36;51.00;95324.94;10502892;28;1957;-63
2023/09/12 14:50:38;;;;;;;;;;;;;;;25.38;51.05;95324.59;10515270;28;1954;-63
2023/09/12 14:55:39;;;;;;;;;;;;;;;25.38;51.03;95319.31;10519313;28;2120;-63
2023/09/12 15:00:39;;;;;;;;;;;;;;;25.37;50.96;95321.16;10524957;27;1981;-63
2023/09/12 15:05:39;;;;;;;;;;;;;;;25.38;50.85;95321.97;10515504;28;1951;-63
2023/09/12 15:10:40;;;;;;;;;;;;;;;25.38;50.78;95320.09;10524164;28;1928;-63
2023/09/12 15:15:40;;;;;;;;;;;;;;;25.39;50.95;95328.84;10523702;28;2457;-63
2023/09/12 15:20:40;;;;;;;;;;;;;;;25.39;50.65;95331.50;10511641;28;1981;-63
2023/09/12 15:25:40;;;;;;;;;;;;;;;25.40;50.69;95335.69;10524652;28;2114;-63
2023/09/12 15:30:41;;;;;;;;;;;;;;;25.40;50.71;95325.06;10513552;28;2019;-63
2023/09/12 15:35:41;;;;;;;;;;;;;;;25.40;50.53;95331.16;10509055;28;1885;-62
2023/09/12 15:40:41;;;;;;;;;;;;;;;25.41;50.41;95327.44;10526537;28;4589;-64
2023/09/12 15:45:41;;;;;;;;;;;;;;;25.42;50.42;95321.06;10524099;28;1866;-64
2023/09/12 15:50:42;;;;;;;;;;;;;;;25.43;50.60;95333.22;10529659;28;1467;-64
2023/09/12 15:55:42;;;;;;;;;;;;;;;25.43;50.93;95330.56;10490093;28;1459;-64
2023/09/12 16:00:42;;;;;;;;;;;;;;;25.43;50.83;95322.59;10489325;28;2572;-64
2023/09/12 16:05:43;;;;;;;;;;;;;;;25.44;50.57;95328.69;10503611;28;1523;-64
2023/09/12 16:10:43;;;;;;;;;;;;;;;25.45;50.68;95325.72;10506180;28;1480;-64
2023/09/12 16:15:43;;;;;;;;;;;;;;;25.43;50.73;95311.97;10513636;28;1843;-64
2023/09/12 16:20:44;;;;;;;;;;;;;;;25.44;50.61;95313.56;10519147;28;1980;-63
2023/09/12 16:25:46;;;;;;;;;;;;;;;25.44;50.74;95318.88;10534177;28;1469;-64
2023/09/12 16:30:46;;;;;;;;;;;;;;;25.44;50.53;95316.22;10532402;28;1811;-64
2023/09/12 16:35:46;;;;;;;;;;;;;;;25.45;50.52;95315.09;10498165;28;1471;-64
2023/09/12 16:40:46;;;;;;;;;;;;;;;25.44;50.36;95313.56;10534369;28;4656;-64
2023/09/12 16:45:47;;;;;;;;;;;;;;;25.45;50.23;95311.69;10529037;28;2493;-64
2023/09/12 16:50:47;;;;;;;;;;;;;;;25.44;50.25;95326.81;10491740;28;1834;-63
2023/09/12 16:55:47;;;;;;;;;;;;;;;25.45;50.29;95331.03;10507419;28;1534;-63
2023/09/12 17:00:48;;;;;;;;;;;;;;;25.46;50.24;95332.59;10524904;28;1921;-64
2023/09/12 17:05:48;;;;;;;;;;;;;;;25.45;50.04;95346.94;10535581;28;1487;-63
2023/09/12 17:10:48;;;;;;;;;;;;;;;25.44;49.64;95350.72;10517384;28;1431;-66
2023/09/12 17:15:49;;;;;;;;;;;;;;;25.42;49.32;95350.25;10501761;28;1876;-65
2023/09/12 17:20:49;;;;;;;;;;;;;;;25.41;49.12;95346.00;10530214;27;2004;-66
2023/09/12 17:25:49;;;;;;;;;;;;;;;25.39;49.29;95342.84;10495486;28;1778;-66
2023/09/12 17:30:50;;;;;;;;;;;;;;;25.39;49.48;95345.50;10498984;28;2642;-64
2023/09/12 17:35:51;;;;;;;;;;;;;;;25.40;49.47;95363.00;10527107;28;1878;-64
2023/09/12 17:40:51;;;;;;;;;;;;;;;25.37;49.51;95381.44;10517928;28;4633;-64
2023/09/12 17:45:52;;;;;;;;;;;;;;;25.36;49.26;95401.88;10532537;28;1937;-64
2023/09/12 17:50:52;;;;;;;;;;;;;;;25.39;49.24;95424.38;10527454;28;1883;-65
2023/09/12 17:55:53;;;;;;;;;;;;;;;25.40;49.58;95445.28;10517604;28;2241;-64
2023/09/12 18:00:56;;;;;;;;;;;;;;;25.45;49.42;95453.09;10523022;28;1978;-63
2023/09/12 18:05:56;;;;;;;;;;;;;;;25.49;49.17;95463.88;10529010;28;1818;-64
2023/09/12 18:10:57;;;;;;;;;;;;;;;25.52;49.04;95479.16;10518624;28;1878;-64
2023/09/12 18:15:57;;;;;;;;;;;;;;;25.58;48.65;95464.66;10537256;27;1499;-64
2023/09/12 18:20:58;;;;;;;;;;;;;;;25.56;49.02;95467.63;10520770;28;1983;-64
2023/09/12 18:25:58;;;;;;;;;;;;;;;25.60;48.75;95483.69;10512601;28;1869;-63
2023/09/12 18:30:58;;;;;;;;;;;;;;;25.65;48.75;95491.53;10506840;28;2525;-63
2023/09/12 18:35:59;;;;;;;;;;;;;;;25.60;48.96;95500.41;10518581;28;1573;-64
2023/09/12 18:40:59;;;;;;;;;;;;;;;25.63;49.32;95493.72;10506480;28;4882;-62
2023/09/12 18:45:59;;;;;;;;;;;;;;;25.67;49.29;95498.09;10522053;28;1839;-63
2023/09/12 18:51:00;;;;;;;;;;;;;;;25.68;49.28;95486.38;10520669;28;1556;-63
2023/09/12 18:56:01;;;;;;;;;;;;;;;25.60;47.74;95478.38;10505657;28;1495;-64
2023/09/12 19:01:01;;;;;;;;;;;;;;;25.58;47.85;95460.13;10503204;28;2018;-64
2023/09/12 19:06:03;;;;;;;;;;;;;;;25.46;48.43;95444.06;10496186;28;1507;-64
2023/09/12 19:11:04;;;;;;;;;;;;;;;25.40;48.57;95428.56;10524870;28;1699;-63
2023/09/12 19:16:04;;;;;;;;;;;;;;;25.42;49.02;95416.56;10521727;28;2408;-64
2023/09/12 19:21:05;;;;;;;;;;;;;;;25.37;49.24;95400.00;10496415;28;1922;-63
2023/09/12 19:26:06;;;;;;;;;;;;;;;25.40;49.12;95405.47;10518610;28;1563;-60
2023/09/12 19:31:06;;;;;;;;;;;;;;;25.44;49.33;95400.34;10499351;28;1872;-65
2023/09/12 19:36:06;;;;;;;;;;;;;;;25.48;49.16;95407.38;10495483;28;1477;-65
2023/09/12 19:41:06;;;;;;;;;;;;;;;25.52;49.32;95410.16;10518787;28;4692;-66
2023/09/12 19:46:07;;;;;;;;;;;;;;;25.45;49.02;95410.63;10532814;28;1531;-64
2023/09/12 19:51:07;;;;;;;;;;;;;;;25.46;48.93;95422.81;10513204;28;1482;-66
2023/09/12 19:56:07;;;;;;;;;;;;;;;25.43;48.82;95423.44;10520347;28;1419;-67
2023/09/12 20:01:08;;;;;;;;;;;;;;;25.42;48.97;95419.22;10515816;28;2560;-66
2023/09/12 20:06:08;;;;;;;;;;;;;;;25.28;51.02;95423.88;10496447;28;1399;-69
2023/09/12 20:11:08;;;;;;;;;;;;;;;25.17;50.51;95409.34;10532428;28;6296;-68
2023/09/12 20:16:15;;;;;;;;;;;;;;;24.96;49.87;95403.84;10479104;28;5309;-70
2023/09/12 20:21:15;;;;;;;;;;;;;;;24.92;51.76;95418.03;10496373;28;1973;-67
2023/09/12 20:26:16;;;;;;;;;;;;;;;24.83;50.72;95425.19;10520735;28;5325;-67
2023/09/12 20:31:17;;;;;;;;;;;;;;;24.75;52.16;95444.53;10525266;28;1549;-67
2023/09/12 20:36:17;;;;;;;;;;;;;;;24.65;52.16;95456.13;10519872;28;1463;-66
2023/09/12 20:41:18;;;;;;;;;;;;;;;24.57;51.16;95462.19;10536828;28;1909;-66
2023/09/12 20:46:18;;;;;;;;;;;;;;;24.53;51.55;95455.13;10530531;28;5482;-66
2023/09/12 20:51:18;;;;;;;;;;;;;;;24.46;52.37;95457.47;10511050;28;1371;-66
2023/09/12 20:56:19;;;;;;;;;;;;;;;24.40;52.38;95456.03;10518523;28;1541;-66
2023/09/12 21:01:19;;;;;;;;;;;;;;;24.28;51.65;95451.28;10518893;28;1902;-68
2023/09/12 21:06:19;;;;;;;;;;;;;;;24.16;51.33;95448.41;10528220;28;2029;-64
2023/09/12 21:11:20;;;;;;;;;;;;;;;24.13;51.67;95444.50;10532424;27;1866;-66
2023/09/12 21:16:21;;;;;;;;;;;;;;;24.20;52.53;95450.16;10475451;28;4826;-66
2023/09/12 21:21:21;;;;;;;;;;;;;;;24.11;51.95;95451.97;10516610;28;1939;-65
2023/09/12 21:26:22;;;;;;;;;;;;;;;24.02;51.33;95445.81;10510002;28;2764;-66
2023/09/12 21:31:22;;;;;;;;;;;;;;;23.98;52.12;95442.22;10518951;28;1902;-67
2023/09/12 21:36:23;;;;;;;;;;;;;;;23.99;52.65;95459.66;10523144;28;1959;-66
2023/09/12 21:41:23;;;;;;;;;;;;;;;24.03;53.70;95455.34;10515808;28;1891;-66
2023/09/12 21:46:24;;;;;;;;;;;;;;;23.97;53.44;95467.13;10516932;28;1870;-67
2023/09/12 21:51:24;;;;;;;;;;;;;;;23.84;52.68;95465.34;10524095;28;1909;-66
2023/09/12 21:56:25;;;;;;;;;;;;;;;23.72;52.04;95457.13;10515246;28;2120;-67
2023/09/12 22:01:26;;;;;;;;;;;;;;;23.49;51.12;95444.19;10532531;28;1905;-64
2023/09/12 22:06:26;;;;;;;;;;;;;;;23.48;52.56;95453.97;10516185;28;1897;-66
2023/09/12 22:11:26;;;;;;;;;;;;;;;23.46;52.84;95461.44;10497772;28;2608;-65
2023/09/12 22:16:26;;;;;;;;;;;;;;;23.47;53.05;95467.50;10536476;28;5026;-65
2023/09/12 22:21:27;;;;;;;;;;;;;;;23.52;53.57;95470.81;10503471;28;1917;-65
2023/09/12 22:26:27;;;;;;;;;;;;;;;23.61;53.91;95470.91;10513871;28;2061;-64
2023/09/12 22:31:27;;;;;;;;;;;;;;;23.68;54.48;95466.75;10513002;28;1906;-64
2023/09/12 22:36:27;;;;;;;;;;;;;;;23.70;54.66;95467.22;10513025;28;1896;-65
2023/09/12 22:41:28;;;;;;;;;;;;;;;23.72;54.77;95467.72;10522821;28;2040;-64
2023/09/12 22:46:29;;;;;;;;;;;;;;;23.71;54.83;95460.88;10514259;28;1893;-64
2023/09/12 22:51:29;;;;;;;;;;;;;;;23.71;54.10;95478.59;10525828;28;1885;-63
2023/09/12 22:56:29;;;;;;;;;;;;;;;23.62;53.96;95478.53;10529158;28;2590;-64
2023/09/12 23:01:31;;;;;;;;;;;;;;;23.62;54.03;95491.75;10526511;28;1967;-64
2023/09/12 23:06:32;;;;;;;;;;;;;;;23.66;54.41;95491.97;10517951;28;1955;-65
2023/09/12 23:11:32;;;;;;;;;;;;;;;23.69;55.12;95484.19;10516921;28;1916;-65
2023/09/12 23:16:34;;;;;;;;;;;;;;;23.67;54.55;95488.22;10516355;28;5171;-65
2023/09/12 23:21:35;;;;;;;;;;;;;;;23.62;52.87;95488.34;10497224;28;1898;-65
2023/09/12 23:26:35;;;;;;;;;;;;;;;23.56;51.71;95485.00;10499646;28;2096;-65
2023/09/12 23:31:35;;;;;;;;;;;;;;;23.46;51.99;95479.94;10501712;28;1871;-65
2023/09/12 23:36:35;;;;;;;;;;;;;;;23.28;50.64;95480.84;10531546;28;1896;-65
2023/09/12 23:41:36;;;;;;;;;;;;;;;23.28;51.03;95491.44;10517125;28;2621;-65
2023/09/12 23:46:37;;;;;;;;;;;;;;;23.27;51.21;95500.44;10483729;28;2076;-65
2023/09/12 23:51:37;;;;;;;;;;;;;;;23.24;49.50;95506.31;10495190;28;1911;-65
2023/09/12 23:56:39;;;;;;;;;;;;;;;23.12;49.04;95506.03;10516253;28;1891;-65
